Grant, Nebraska
Current Conditions -  °F | °C
As of 7:55 AM on Friday 19 Dec 2014 (Local Time) from KOGA Reporting Station
Clear Clear  
Wind Chill:   Ceiling: Unl
Heat Index: 14°   Visibility: 10mi
Dew Point: 12°   Wind: 7mph
Humidity: 90%   Direction: 260°W
Pressure: 30.1"   Gusts: NA
Location:  40.84°N, 101.73°W
Report Text: KOGA 191455Z AUTO 26006KT 10SM CLR M10/M11 A3010 RMK AO2 T10991112
Loading
Personal Weather Stations






























Interactive Weather Map New forecast layout! Learn more

10-Day Weather Forecast

Advertisements
Track Severe Weather on mobile